createdAt,value
2023-03-29T00:00:33.639Z,447.00
2023-03-29T00:01:35.476Z,452.00
2023-03-29T00:02:33.804Z,453.00
2023-03-29T00:05:33.608Z,455.00
2023-03-29T00:07:33.624Z,452.00
2023-03-29T00:09:33.672Z,453.00
2023-03-29T00:10:33.643Z,452.00
2023-03-29T00:11:33.601Z,453.00
2023-03-29T00:13:33.614Z,455.00
2023-03-29T00:14:33.611Z,453.00
2023-03-29T00:16:33.628Z,453.00
2023-03-29T00:17:33.593Z,454.00
2023-03-29T00:18:33.573Z,452.00
2023-03-29T00:20:33.580Z,452.00
2023-03-29T00:21:33.579Z,452.00
2023-03-29T00:22:33.580Z,451.00
2023-03-29T00:27:33.574Z,450.00
2023-03-29T00:29:33.565Z,453.00
2023-03-29T00:30:33.568Z,450.00
2023-03-29T00:31:33.609Z,450.00
2023-03-29T00:32:33.594Z,450.00
2023-03-29T00:34:33.551Z,451.00
2023-03-29T00:38:33.531Z,453.00
2023-03-29T00:39:33.528Z,449.00
2023-03-29T00:40:33.512Z,449.00
2023-03-29T00:41:33.521Z,452.00
2023-03-29T00:43:33.471Z,451.00
2023-03-29T00:45:33.453Z,447.00
2023-03-29T00:46:33.494Z,446.00
2023-03-29T00:47:33.487Z,447.00
2023-03-29T00:48:33.456Z,444.00
2023-03-29T00:49:33.437Z,444.00
2023-03-29T00:50:33.439Z,443.00
2023-03-29T00:53:33.434Z,442.00
2023-03-29T00:54:33.395Z,440.00
2023-03-29T00:55:33.399Z,442.00
2023-03-29T00:56:33.384Z,443.00
2023-03-29T01:00:33.346Z,447.00
2023-03-29T01:02:33.431Z,448.00
2023-03-29T01:04:33.325Z,448.00
2023-03-29T01:05:33.312Z,447.00
2023-03-29T01:06:33.326Z,450.00
2023-03-29T01:07:33.307Z,451.00
2023-03-29T01:08:33.329Z,453.00
2023-03-29T01:09:33.324Z,452.00
2023-03-29T01:10:33.312Z,450.00
2023-03-29T01:11:33.335Z,450.00
2023-03-29T01:12:33.297Z,450.00
2023-03-29T01:13:33.297Z,450.00
2023-03-29T01:14:33.300Z,451.00
2023-03-29T01:15:33.327Z,448.00
2023-03-29T01:16:33.340Z,448.00
2023-03-29T01:17:33.346Z,450.00
2023-03-29T01:19:33.285Z,449.00
2023-03-29T01:20:33.319Z,446.00
2023-03-29T01:21:33.301Z,445.00
2023-03-29T01:22:33.316Z,448.00
2023-03-29T01:25:33.312Z,447.00
2023-03-29T01:26:33.338Z,446.00
2023-03-29T01:27:33.359Z,445.00
2023-03-29T01:30:33.354Z,444.00
2023-03-29T01:31:33.360Z,442.00
2023-03-29T01:32:33.385Z,440.00
2023-03-29T01:34:33.363Z,443.00
2023-03-29T01:35:33.399Z,441.00
2023-03-29T01:36:33.412Z,440.00
2023-03-29T01:37:33.400Z,439.00
2023-03-29T01:38:33.381Z,441.00
2023-03-29T01:41:33.399Z,442.00
2023-03-29T01:42:33.414Z,443.00
2023-03-29T01:43:33.413Z,445.00
2023-03-29T01:44:33.417Z,445.00
2023-03-29T01:45:33.435Z,447.00
2023-03-29T01:46:33.478Z,450.00
2023-03-29T01:47:33.528Z,450.00
2023-03-29T01:48:33.440Z,447.00
2023-03-29T01:49:33.446Z,447.00
2023-03-29T01:50:33.457Z,446.00
2023-03-29T01:51:33.457Z,445.00
2023-03-29T01:52:33.476Z,446.00
2023-03-29T01:54:33.457Z,448.00
2023-03-29T01:57:33.471Z,447.00
2023-03-29T01:58:33.475Z,445.00
2023-03-29T01:59:33.488Z,443.00
2023-03-29T02:03:33.603Z,446.00
2023-03-29T02:04:33.489Z,445.00
2023-03-29T02:05:33.488Z,448.00
2023-03-29T02:07:33.498Z,449.00
2023-03-29T02:08:33.547Z,449.00
2023-03-29T02:09:33.483Z,452.00
2023-03-29T02:10:33.510Z,454.00
2023-03-29T02:14:33.502Z,448.00
2023-03-29T02:15:33.561Z,449.00
2023-03-29T02:16:33.515Z,447.00
2023-03-29T02:17:33.536Z,446.00
2023-03-29T02:18:33.540Z,448.00
2023-03-29T02:19:33.533Z,447.00
2023-03-29T02:20:33.541Z,447.00
2023-03-29T02:21:33.549Z,446.00
2023-03-29T02:22:33.563Z,444.00
2023-03-29T02:23:33.565Z,444.00
2023-03-29T02:25:33.550Z,440.00
2023-03-29T02:26:33.548Z,442.00
2023-03-29T02:30:33.569Z,448.00
2023-03-29T02:33:33.562Z,449.00
2023-03-29T02:34:33.563Z,448.00
2023-03-29T02:35:33.584Z,445.00
2023-03-29T02:36:33.581Z,444.00
2023-03-29T02:37:33.584Z,442.00
2023-03-29T02:38:33.593Z,439.00
2023-03-29T02:42:33.578Z,438.00
2023-03-29T02:44:33.593Z,438.00
2023-03-29T02:45:33.602Z,437.00
2023-03-29T02:46:33.633Z,439.00
2023-03-29T02:47:33.657Z,443.00
2023-03-29T02:48:33.673Z,444.00
2023-03-29T02:50:33.691Z,443.00
2023-03-29T02:51:33.732Z,444.00
2023-03-29T02:52:33.751Z,439.00
2023-03-29T02:53:33.773Z,444.00
2023-03-29T02:54:33.789Z,445.00
2023-03-29T02:55:33.807Z,442.00
2023-03-29T02:56:33.891Z,440.00
2023-03-29T02:57:33.860Z,435.00
2023-03-29T02:58:33.889Z,436.00
2023-03-29T03:02:34.105Z,435.00
2023-03-29T03:03:34.144Z,438.00
2023-03-29T03:04:34.034Z,436.00
2023-03-29T03:05:34.070Z,435.00
2023-03-29T03:06:34.113Z,434.00
2023-03-29T03:07:34.123Z,431.00
2023-03-29T03:08:34.170Z,432.00
2023-03-29T03:09:34.173Z,430.00
2023-03-29T03:10:34.253Z,426.00
2023-03-29T03:11:34.246Z,432.00
2023-03-29T03:12:34.260Z,434.00
2023-03-29T03:13:34.306Z,432.00
2023-03-29T03:14:34.339Z,433.00
2023-03-29T03:17:34.478Z,435.00
2023-03-29T03:18:34.435Z,437.00
2023-03-29T03:19:34.433Z,435.00
2023-03-29T03:20:34.452Z,434.00
2023-03-29T03:21:34.470Z,433.00
2023-03-29T03:22:34.494Z,433.00
2023-03-29T03:23:34.529Z,432.00
2023-03-29T03:24:34.555Z,432.00
2023-03-29T03:25:34.584Z,434.00
2023-03-29T03:26:34.613Z,435.00
2023-03-29T03:27:34.618Z,434.00
2023-03-29T03:28:34.661Z,431.00
2023-03-29T03:29:34.669Z,431.00
2023-03-29T03:30:34.758Z,431.00
2023-03-29T03:31:34.743Z,432.00
2023-03-29T03:32:34.748Z,431.00
2023-03-29T03:33:34.782Z,431.00
2023-03-29T03:34:34.772Z,429.00
2023-03-29T03:35:34.848Z,430.00
2023-03-29T03:36:34.869Z,433.00
2023-03-29T03:37:34.857Z,429.00
2023-03-29T03:38:34.905Z,429.00
2023-03-29T03:39:34.908Z,427.00
2023-03-29T03:40:34.986Z,424.00
2023-03-29T03:41:34.967Z,424.00
2023-03-29T03:42:34.994Z,423.00
2023-03-29T03:43:35.067Z,420.00
2023-03-29T03:46:35.081Z,425.00
2023-03-29T03:49:35.151Z,425.00
2023-03-29T03:50:35.172Z,423.00
2023-03-29T03:51:35.177Z,423.00
2023-03-29T03:52:35.193Z,424.00
2023-03-29T03:53:35.235Z,427.00
2023-03-29T03:54:35.247Z,426.00
2023-03-29T03:55:35.286Z,425.00
2023-03-29T03:56:35.310Z,425.00
2023-03-29T03:57:35.325Z,427.00
2023-03-29T03:58:35.361Z,426.00
2023-03-29T03:59:35.375Z,425.00
2023-03-29T04:00:35.414Z,425.00
2023-03-29T04:01:35.527Z,425.00
2023-03-29T04:02:35.522Z,425.00
2023-03-29T04:05:35.521Z,423.00
2023-03-29T04:06:35.562Z,422.00
2023-03-29T04:07:35.566Z,424.00
2023-03-29T04:08:35.630Z,424.00
2023-03-29T04:09:35.640Z,425.00
2023-03-29T04:11:35.679Z,424.00
2023-03-29T04:12:35.714Z,425.00
2023-03-29T04:13:35.798Z,425.00
2023-03-29T04:14:35.814Z,422.00
2023-03-29T04:15:35.804Z,420.00
2023-03-29T04:16:35.822Z,422.00
2023-03-29T04:17:38.732Z,421.00
2023-03-29T04:18:35.936Z,421.00
2023-03-29T04:19:35.907Z,421.00
2023-03-29T04:20:35.964Z,421.00
2023-03-29T04:21:35.953Z,422.00
2023-03-29T04:22:35.979Z,423.00
2023-03-29T04:23:35.980Z,426.00
2023-03-29T04:24:36.069Z,425.00
2023-03-29T04:28:36.068Z,436.00
2023-03-29T04:29:36.080Z,436.00
2023-03-29T04:30:36.061Z,438.00
2023-03-29T04:31:36.113Z,441.00
2023-03-29T04:32:36.150Z,440.00
2023-03-29T04:33:36.101Z,439.00
2023-03-29T04:34:36.157Z,438.00
2023-03-29T04:35:36.213Z,438.00
2023-03-29T04:37:36.183Z,431.00
2023-03-29T04:38:36.215Z,435.00
2023-03-29T04:39:36.231Z,435.00
2023-03-29T04:40:36.214Z,435.00
2023-03-29T04:41:36.256Z,436.00
2023-03-29T04:42:36.251Z,435.00
2023-03-29T04:43:37.854Z,434.00
2023-03-29T04:44:36.305Z,435.00
2023-03-29T04:45:36.287Z,441.00
2023-03-29T04:46:36.332Z,437.00
2023-03-29T04:47:36.408Z,436.00
2023-03-29T04:48:36.337Z,437.00
2023-03-29T04:49:36.351Z,438.00
2023-03-29T04:50:36.379Z,432.00
2023-03-29T04:53:36.422Z,433.00
2023-03-29T04:54:36.421Z,430.00
2023-03-29T04:55:36.448Z,433.00
2023-03-29T04:56:36.456Z,431.00
2023-03-29T04:57:36.457Z,429.00
2023-03-29T04:58:36.486Z,437.00
2023-03-29T04:59:36.512Z,435.00
2023-03-29T05:00:36.554Z,430.00
2023-03-29T05:01:36.594Z,426.00
2023-03-29T05:02:36.643Z,421.00
2023-03-29T05:03:36.640Z,423.00
2023-03-29T05:04:36.700Z,421.00
2023-03-29T05:05:36.705Z,422.00
2023-03-29T05:06:36.733Z,425.00
2023-03-29T05:07:36.743Z,424.00
2023-03-29T05:08:36.774Z,423.00
2023-03-29T05:09:36.844Z,423.00
2023-03-29T05:10:36.860Z,425.00
2023-03-29T05:11:36.882Z,423.00
2023-03-29T05:12:36.963Z,422.00
2023-03-29T05:13:36.943Z,423.00
2023-03-29T05:14:36.961Z,422.00
2023-03-29T05:15:37.430Z,421.00
2023-03-29T05:16:37.077Z,426.00
2023-03-29T05:17:37.125Z,426.00
2023-03-29T05:18:37.046Z,426.00
2023-03-29T05:19:37.059Z,426.00
2023-03-29T05:20:37.120Z,427.00
2023-03-29T05:21:37.114Z,425.00
2023-03-29T05:25:37.194Z,427.00
2023-03-29T05:26:37.209Z,429.00
2023-03-29T05:27:37.235Z,430.00
2023-03-29T05:28:37.254Z,430.00
2023-03-29T05:29:37.260Z,431.00
2023-03-29T05:30:37.312Z,430.00
2023-03-29T05:31:37.348Z,441.00
2023-03-29T05:32:37.353Z,454.00
2023-03-29T05:33:37.365Z,461.00
2023-03-29T05:34:37.368Z,466.00
2023-03-29T05:35:37.442Z,485.00
2023-03-29T05:36:37.393Z,496.00
2023-03-29T05:37:37.412Z,532.00
2023-03-29T05:39:37.827Z,560.00
2023-03-29T05:40:37.447Z,781.00
2023-03-29T05:41:37.463Z,743.00
2023-03-29T05:42:37.471Z,751.00
2023-03-29T05:43:37.479Z,758.00
2023-03-29T05:44:37.552Z,768.00
2023-03-29T05:45:37.532Z,813.00
2023-03-29T05:46:37.598Z,767.00
2023-03-29T05:48:37.589Z,880.00
2023-03-29T05:49:37.772Z,983.00
2023-03-29T05:51:37.599Z,974.00
2023-03-29T05:52:37.533Z,974.00
2023-03-29T05:53:37.557Z,967.00
2023-03-29T05:56:37.634Z,865.00
2023-03-29T05:57:37.583Z,848.00
2023-03-29T05:58:37.572Z,832.00
2023-03-29T06:00:37.589Z,788.00
2023-03-29T06:03:37.827Z,891.00
2023-03-29T06:04:37.830Z,924.00
2023-03-29T06:05:37.593Z,904.00
2023-03-29T06:06:37.630Z,796.00
2023-03-29T06:07:37.656Z,783.00
2023-03-29T06:08:37.687Z,740.00
2023-03-29T06:09:37.807Z,711.00
2023-03-29T06:10:37.700Z,701.00
2023-03-29T06:11:37.881Z,657.00
2023-03-29T06:14:37.886Z,628.00
2023-03-29T06:15:37.900Z,623.00
2023-03-29T06:16:39.096Z,620.00
2023-03-29T06:17:38.030Z,609.00
2023-03-29T06:18:38.146Z,606.00
2023-03-29T06:19:38.060Z,597.00
2023-03-29T06:20:38.146Z,598.00
2023-03-29T06:21:38.177Z,594.00
2023-03-29T06:22:38.247Z,590.00
2023-03-29T06:23:38.260Z,592.00
2023-03-29T06:24:38.296Z,587.00
2023-03-29T06:25:38.336Z,586.00
2023-03-29T06:26:38.376Z,584.00
2023-03-29T06:27:38.422Z,580.00
2023-03-29T06:28:38.499Z,596.00
2023-03-29T06:29:38.492Z,611.00
2023-03-29T06:30:38.541Z,707.00
2023-03-29T06:31:38.676Z,898.00
2023-03-29T06:33:38.622Z,1014.00
2023-03-29T06:34:38.701Z,881.00
2023-03-29T06:35:38.732Z,850.00
2023-03-29T06:36:38.689Z,1122.00
2023-03-29T06:37:38.694Z,1045.00
2023-03-29T06:38:38.696Z,996.00
2023-03-29T06:39:38.711Z,911.00
2023-03-29T06:40:38.743Z,1034.00
2023-03-29T06:41:38.773Z,995.00
2023-03-29T06:42:38.753Z,1218.00
2023-03-29T06:43:38.792Z,1220.00
2023-03-29T06:45:38.810Z,1275.00
2023-03-29T06:46:38.798Z,1232.00
2023-03-29T06:47:38.824Z,1212.00
2023-03-29T06:48:38.798Z,1136.00
2023-03-29T06:50:38.805Z,1244.00
2023-03-29T06:52:38.792Z,1329.00
2023-03-29T06:53:38.825Z,1272.00
2023-03-29T06:54:38.765Z,1252.00
2023-03-29T06:58:38.754Z,1331.00
2023-03-29T06:59:38.770Z,1320.00
2023-03-29T07:00:38.771Z,1310.00
2023-03-29T07:01:38.807Z,1317.00
2023-03-29T07:02:38.801Z,1327.00
2023-03-29T07:03:38.816Z,1330.00
2023-03-29T07:04:38.851Z,1327.00
2023-03-29T07:06:38.728Z,1325.00
2023-03-29T07:08:38.714Z,1337.00
2023-03-29T07:11:38.660Z,1338.00
2023-03-29T07:12:38.663Z,1332.00
2023-03-29T07:13:38.648Z,1333.00
2023-03-29T07:17:38.589Z,1379.00
2023-03-29T07:18:38.614Z,1412.00
2023-03-29T07:19:38.606Z,1418.00
2023-03-29T07:21:38.558Z,1400.00
2023-03-29T07:22:38.568Z,1381.00
2023-03-29T07:23:38.529Z,1362.00
2023-03-29T07:24:38.534Z,1286.00
2023-03-29T07:28:38.497Z,1195.00
2023-03-29T07:29:38.529Z,1201.00
2023-03-29T07:32:38.632Z,1205.00
2023-03-29T07:33:38.632Z,1200.00
2023-03-29T07:35:38.501Z,1205.00
2023-03-29T07:36:38.443Z,1279.00
2023-03-29T07:37:38.458Z,1286.00
2023-03-29T07:38:38.418Z,1296.00
2023-03-29T07:39:38.431Z,1314.00
2023-03-29T07:40:38.433Z,1321.00
2023-03-29T07:42:38.408Z,1104.00
2023-03-29T07:43:38.390Z,1125.00
2023-03-29T07:47:38.421Z,1206.00
2023-03-29T07:48:38.472Z,1110.00
2023-03-29T07:50:38.396Z,1078.00
2023-03-29T07:51:38.439Z,1057.00
2023-03-29T07:53:38.419Z,1005.00
2023-03-29T07:54:38.516Z,996.00
2023-03-29T08:00:38.574Z,978.00
2023-03-29T08:01:38.432Z,981.00
2023-03-29T08:02:38.461Z,1079.00
2023-03-29T08:03:38.514Z,1077.00
2023-03-29T08:04:38.461Z,1063.00
2023-03-29T08:05:41.746Z,1038.00
2023-03-29T08:10:38.366Z,1059.00
2023-03-29T08:11:38.324Z,1123.00
2023-03-29T08:12:38.325Z,1149.00
2023-03-29T08:13:38.335Z,1154.00
2023-03-29T08:15:38.350Z,1344.00
2023-03-29T08:17:38.291Z,1201.00
2023-03-29T08:21:38.298Z,1230.00
2023-03-29T08:22:38.318Z,1325.00
2023-03-29T08:23:38.215Z,1282.00
2023-03-29T08:24:38.304Z,1246.00
2023-03-29T08:25:38.179Z,1227.00
2023-03-29T08:27:38.164Z,1273.00
2023-03-29T08:28:38.195Z,1260.00
2023-03-29T08:31:38.190Z,1419.00
2023-03-29T08:32:38.140Z,1328.00
2023-03-29T08:33:38.103Z,1244.00
2023-03-29T08:34:38.083Z,1242.00
2023-03-29T08:36:38.083Z,1174.00
2023-03-29T08:37:38.088Z,1144.00
2023-03-29T08:38:38.165Z,1113.00
2023-03-29T08:42:38.022Z,1012.00
2023-03-29T08:43:38.030Z,1005.00
2023-03-29T08:44:38.044Z,998.00
2023-03-29T08:45:38.031Z,1008.00
2023-03-29T08:46:38.042Z,1029.00
2023-03-29T08:47:38.090Z,1081.00
2023-03-29T08:48:38.064Z,1033.00
2023-03-29T08:49:38.094Z,937.00
2023-03-29T08:50:38.231Z,1003.00
2023-03-29T08:51:38.107Z,865.00
2023-03-29T08:52:38.138Z,1008.00
2023-03-29T08:53:38.301Z,991.00
2023-03-29T08:54:38.063Z,1008.00
2023-03-29T08:55:38.071Z,1077.00
2023-03-29T08:56:38.164Z,1096.00
2023-03-29T08:59:38.069Z,1167.00
2023-03-29T09:02:38.143Z,1237.00
2023-03-29T09:03:38.258Z,1304.00
2023-03-29T09:04:38.054Z,1312.00
2023-03-29T09:05:38.056Z,1312.00
2023-03-29T09:10:38.004Z,1464.00
2023-03-29T09:11:37.999Z,1449.00
2023-03-29T09:12:38.076Z,1444.00
2023-03-29T09:15:37.963Z,1370.00
2023-03-29T09:16:38.032Z,1376.00
2023-03-29T09:17:38.032Z,1465.00
2023-03-29T09:18:37.998Z,1453.00
2023-03-29T09:19:37.960Z,1437.00
2023-03-29T09:25:50.890Z,1405.00
2023-03-29T09:26:38.856Z,1405.00
2023-03-29T09:27:38.015Z,1434.00
2023-03-29T09:30:37.810Z,1459.00
2023-03-29T09:31:38.897Z,1462.00
2023-03-29T09:35:37.802Z,1523.00
2023-03-29T09:37:37.898Z,1521.00
2023-03-29T09:38:37.728Z,1512.00
2023-03-29T09:39:37.742Z,1585.00
2023-03-29T09:42:37.719Z,1541.00
2023-03-29T09:43:37.753Z,1567.00
2023-03-29T09:46:37.619Z,1513.00
2023-03-29T09:47:37.684Z,1489.00
2023-03-29T09:48:37.585Z,1470.00
2023-03-29T09:49:37.588Z,1412.00
2023-03-29T09:50:37.560Z,1392.00
2023-03-29T09:53:37.516Z,1359.00
2023-03-29T09:57:37.599Z,1294.00
2023-03-29T09:58:37.456Z,1272.00
2023-03-29T09:59:37.489Z,1244.00
2023-03-29T10:03:37.412Z,1193.00
2023-03-29T10:05:37.353Z,1129.00
2023-03-29T10:06:37.365Z,1117.00
2023-03-29T10:07:37.342Z,1112.00
2023-03-29T10:08:37.340Z,1110.00
2023-03-29T10:09:37.349Z,1102.00
2023-03-29T10:10:37.313Z,1092.00
2023-03-29T10:16:37.305Z,1029.00
2023-03-29T10:17:37.249Z,1024.00
2023-03-29T10:18:37.232Z,1019.00
2023-03-29T10:19:37.271Z,1011.00
2023-03-29T10:21:37.184Z,998.00
2023-03-29T10:22:37.248Z,988.00
2023-03-29T10:23:37.195Z,981.00
2023-03-29T10:24:37.158Z,973.00
2023-03-29T10:25:37.185Z,967.00
2023-03-29T10:28:37.094Z,951.00
2023-03-29T10:29:37.118Z,946.00
2023-03-29T10:31:37.123Z,943.00
2023-03-29T10:32:37.088Z,940.00
2023-03-29T10:33:37.034Z,938.00
2023-03-29T10:34:37.038Z,935.00
2023-03-29T10:36:37.000Z,932.00
2023-03-29T10:40:36.934Z,922.00
2023-03-29T10:41:36.980Z,918.00
2023-03-29T10:43:36.870Z,914.00
2023-03-29T10:44:36.910Z,913.00
2023-03-29T10:46:36.977Z,913.00
2023-03-29T10:47:36.879Z,911.00
2023-03-29T10:49:36.783Z,905.00
2023-03-29T10:50:36.847Z,905.00
2023-03-29T10:53:36.746Z,904.00
2023-03-29T10:54:36.787Z,899.00
2023-03-29T10:55:36.772Z,894.00
2023-03-29T10:56:36.729Z,893.00
2023-03-29T10:57:36.887Z,888.00
2023-03-29T10:59:36.746Z,883.00
2023-03-29T11:00:36.692Z,884.00
2023-03-29T11:04:36.636Z,877.00
2023-03-29T11:05:36.664Z,874.00
2023-03-29T11:07:36.658Z,870.00
2023-03-29T11:09:36.624Z,864.00
2023-03-29T11:11:36.550Z,859.00
2023-03-29T11:12:36.577Z,858.00
2023-03-29T11:15:36.596Z,847.00
2023-03-29T11:20:36.493Z,804.00
2023-03-29T11:21:36.478Z,794.00
2023-03-29T11:22:36.482Z,785.00
2023-03-29T11:23:36.505Z,775.00
2023-03-29T11:25:36.486Z,765.00
2023-03-29T11:28:36.457Z,747.00
2023-03-29T11:29:36.567Z,745.00
2023-03-29T11:31:38.544Z,750.00
2023-03-29T11:32:36.504Z,752.00
2023-03-29T11:34:37.136Z,751.00
2023-03-29T11:37:36.363Z,763.00
2023-03-29T11:39:36.353Z,769.00
2023-03-29T11:41:36.337Z,772.00
2023-03-29T11:43:36.311Z,775.00
2023-03-29T11:44:36.286Z,779.00
2023-03-29T11:45:36.275Z,779.00
2023-03-29T11:46:36.294Z,780.00
2023-03-29T11:49:36.259Z,776.00
2023-03-29T11:50:36.830Z,775.00
2023-03-29T11:52:36.235Z,847.00
2023-03-29T11:54:36.165Z,793.00
2023-03-29T11:55:36.188Z,791.00
2023-03-29T11:56:36.125Z,789.00
2023-03-29T12:02:36.156Z,764.00
2023-03-29T12:03:36.171Z,763.00
2023-03-29T12:04:36.073Z,760.00
2023-03-29T12:06:36.072Z,754.00
2023-03-29T12:07:36.107Z,754.00
2023-03-29T12:09:36.024Z,752.00
2023-03-29T12:14:35.941Z,740.00
2023-03-29T12:15:35.999Z,739.00
2023-03-29T12:16:35.969Z,735.00
2023-03-29T12:17:35.920Z,736.00
2023-03-29T12:21:35.861Z,731.00
2023-03-29T12:22:35.827Z,725.00
2023-03-29T12:25:35.803Z,721.00
2023-03-29T12:27:35.763Z,713.00
2023-03-29T12:28:35.739Z,714.00
2023-03-29T12:29:35.751Z,709.00
2023-03-29T12:32:35.761Z,944.00
2023-03-29T12:35:35.670Z,923.00
2023-03-29T12:37:35.621Z,957.00
2023-03-29T12:38:35.609Z,1046.00
2023-03-29T12:39:35.684Z,1082.00
2023-03-29T12:41:35.601Z,1143.00
2023-03-29T12:43:35.596Z,1202.00
2023-03-29T12:45:35.496Z,1223.00
2023-03-29T12:46:35.549Z,1249.00
2023-03-29T12:47:35.499Z,1253.00
2023-03-29T12:48:35.424Z,1257.00
2023-03-29T12:49:35.400Z,1263.00
2023-03-29T12:50:35.394Z,1243.00
2023-03-29T12:51:35.444Z,1239.00
2023-03-29T12:52:35.366Z,1520.00
2023-03-29T12:55:09.761Z,1334.00
2023-03-29T12:57:15.501Z,1497.00
2023-03-29T12:58:15.342Z,1460.00
2023-03-29T12:59:15.315Z,1452.00
2023-03-29T13:00:15.297Z,1443.00
2023-03-29T13:01:15.347Z,1503.00
2023-03-29T13:02:15.419Z,1814.00
2023-03-29T13:03:15.226Z,1493.00
2023-03-29T13:04:15.174Z,1477.00
2023-03-29T13:05:15.229Z,1491.00
2023-03-29T13:06:15.128Z,1500.00
2023-03-29T13:07:15.124Z,1494.00
2023-03-29T13:08:15.068Z,1543.00
2023-03-29T13:09:15.047Z,1534.00
2023-03-29T13:10:15.014Z,1528.00
2023-03-29T13:11:15.012Z,1525.00
2023-03-29T13:12:14.986Z,1618.00
2023-03-29T13:13:14.946Z,1597.00
2023-03-29T13:14:14.899Z,1550.00
2023-03-29T13:15:14.866Z,1420.00
2023-03-29T13:16:14.895Z,1312.00
2023-03-29T13:17:18.704Z,1287.00
2023-03-29T13:18:14.866Z,1323.00
2023-03-29T13:19:14.766Z,1238.00
2023-03-29T13:20:14.781Z,1069.00
2023-03-29T13:21:14.714Z,1094.00
2023-03-29T13:22:14.709Z,1310.00
2023-03-29T13:23:17.030Z,1132.00
2023-03-29T13:24:14.661Z,1110.00
2023-03-29T13:25:14.661Z,1059.00
2023-03-29T13:26:14.608Z,1027.00
2023-03-29T13:27:14.595Z,948.00
2023-03-29T13:28:14.592Z,942.00
2023-03-29T13:29:14.559Z,1136.00
2023-03-29T13:30:14.580Z,918.00
2023-03-29T13:31:14.715Z,853.00
2023-03-29T13:32:14.631Z,873.00
2023-03-29T13:33:14.557Z,1014.00
2023-03-29T13:34:14.519Z,1107.00
2023-03-29T13:35:14.526Z,1073.00
2023-03-29T13:36:14.587Z,1050.00
2023-03-29T13:37:14.478Z,1054.00
2023-03-29T13:38:14.444Z,1065.00
2023-03-29T13:39:14.446Z,1079.00
2023-03-29T13:40:14.457Z,1085.00
2023-03-29T13:41:14.364Z,1092.00
2023-03-29T13:42:14.362Z,1202.00
2023-03-29T13:43:14.308Z,1180.00
2023-03-29T13:44:14.281Z,1177.00
2023-03-29T13:45:14.275Z,1194.00
2023-03-29T13:46:14.323Z,1206.00
2023-03-29T13:47:14.337Z,1231.00
2023-03-29T13:48:14.406Z,1278.00
2023-03-29T13:49:14.416Z,1293.00
2023-03-29T13:50:14.407Z,1306.00
2023-03-29T13:51:14.413Z,1325.00
2023-03-29T13:52:14.427Z,1345.00
2023-03-29T13:53:14.375Z,1356.00
2023-03-29T13:54:14.342Z,1380.00
2023-03-29T13:55:14.339Z,1403.00
2023-03-29T13:56:14.282Z,1548.00
2023-03-29T13:57:14.310Z,1536.00
2023-03-29T13:58:14.235Z,1558.00
2023-03-29T13:59:14.199Z,1604.00
2023-03-29T14:00:14.205Z,1597.00
2023-03-29T14:01:14.201Z,1600.00
2023-03-29T14:02:14.128Z,1603.00
2023-03-29T14:03:14.165Z,1702.00
2023-03-29T14:04:14.024Z,1687.00
2023-03-29T14:05:13.968Z,1741.00
2023-03-29T14:06:13.933Z,1720.00
2023-03-29T14:07:13.959Z,1852.00
2023-03-29T14:08:13.915Z,1887.00
2023-03-29T14:09:13.854Z,1877.00
2023-03-29T14:10:13.832Z,1756.00
2023-03-29T14:11:13.772Z,1755.00
2023-03-29T14:12:13.734Z,1766.00
2023-03-29T14:13:13.714Z,1778.00
2023-03-29T14:14:13.680Z,1905.00
2023-03-29T14:15:13.912Z,1930.00
2023-03-29T14:16:13.702Z,1796.00
2023-03-29T14:17:13.748Z,1817.00
2023-03-29T14:18:13.708Z,1847.00
2023-03-29T14:19:13.695Z,1853.00
2023-03-29T14:20:13.725Z,1837.00
2023-03-29T14:21:13.698Z,1820.00
2023-03-29T14:22:13.702Z,1800.00
2023-03-29T14:23:15.645Z,1775.00
2023-03-29T14:24:13.749Z,1755.00
2023-03-29T14:25:13.762Z,1735.00
2023-03-29T14:26:13.776Z,1714.00
2023-03-29T14:27:13.803Z,1693.00
2023-03-29T14:28:13.839Z,1679.00
2023-03-29T14:29:13.850Z,1664.00
2023-03-29T14:30:13.852Z,1656.00
2023-03-29T14:31:13.873Z,1640.00
2023-03-29T14:32:13.866Z,1627.00
2023-03-29T14:33:13.777Z,1618.00
2023-03-29T14:34:13.741Z,1608.00
2023-03-29T14:35:13.743Z,1600.00
2023-03-29T14:36:13.782Z,1595.00
2023-03-29T14:37:13.690Z,1583.00
2023-03-29T14:38:13.686Z,1577.00
2023-03-29T14:39:13.632Z,1568.00
2023-03-29T14:40:13.638Z,1546.00
2023-03-29T14:41:13.682Z,1532.00
2023-03-29T14:42:13.721Z,1525.00
2023-03-29T14:43:13.777Z,1516.00
2023-03-29T14:44:13.802Z,1513.00
2023-03-29T14:45:13.844Z,1501.00
2023-03-29T14:46:13.927Z,1492.00
2023-03-29T14:47:13.928Z,1480.00
2023-03-29T14:48:13.987Z,1472.00
2023-03-29T14:49:14.015Z,1463.00
2023-03-29T14:50:14.071Z,1455.00
2023-03-29T14:51:14.108Z,1447.00
2023-03-29T14:52:14.150Z,1443.00
2023-03-29T14:53:14.218Z,1439.00
2023-03-29T14:54:14.241Z,1438.00
2023-03-29T14:55:14.289Z,1431.00
2023-03-29T14:56:14.325Z,1423.00
2023-03-29T14:57:14.432Z,1422.00
2023-03-29T14:58:14.416Z,1419.00
2023-03-29T14:59:14.456Z,1413.00
2023-03-29T15:00:14.523Z,1411.00
2023-03-29T15:01:14.569Z,1404.00
2023-03-29T15:02:14.570Z,1401.00
2023-03-29T15:03:14.760Z,1400.00
2023-03-29T15:04:14.588Z,1393.00
2023-03-29T15:05:14.586Z,1393.00
2023-03-29T15:06:14.599Z,1392.00
2023-03-29T15:07:14.650Z,1390.00
2023-03-29T15:08:14.713Z,1384.00
2023-03-29T15:09:14.752Z,1380.00
2023-03-29T15:10:14.817Z,1382.00
2023-03-29T15:11:14.865Z,1378.00
2023-03-29T15:12:14.908Z,1378.00
2023-03-29T15:13:14.953Z,1379.00
2023-03-29T15:14:14.953Z,1375.00
2023-03-29T15:15:15.094Z,1370.00
2023-03-29T15:16:15.104Z,1366.00
2023-03-29T15:17:15.092Z,1365.00
2023-03-29T15:18:15.173Z,1361.00
2023-03-29T15:19:15.184Z,1361.00
2023-03-29T15:20:15.186Z,1355.00
2023-03-29T15:21:15.170Z,1356.00
2023-03-29T15:22:15.188Z,1354.00
2023-03-29T15:23:15.220Z,1348.00
2023-03-29T15:24:15.264Z,1345.00
2023-03-29T15:25:15.322Z,1343.00
2023-03-29T15:26:15.369Z,1337.00
2023-03-29T15:27:15.406Z,1333.00
2023-03-29T15:28:15.443Z,1333.00
2023-03-29T15:29:15.461Z,1333.00
2023-03-29T15:30:15.487Z,1334.00
2023-03-29T15:31:15.524Z,1333.00
2023-03-29T15:32:15.468Z,1330.00
2023-03-29T15:33:15.495Z,1329.00
2023-03-29T15:34:15.438Z,1326.00
2023-03-29T15:35:15.460Z,1325.00
2023-03-29T15:36:15.446Z,1324.00
2023-03-29T15:37:15.412Z,1324.00
2023-03-29T15:38:15.410Z,1318.00
2023-03-29T15:39:15.439Z,1314.00
2023-03-29T15:40:16.309Z,1309.00
2023-03-29T15:41:15.390Z,1307.00
2023-03-29T15:42:15.306Z,1304.00
2023-03-29T15:43:15.270Z,1299.00
2023-03-29T15:44:15.264Z,1296.00
2023-03-29T15:45:15.224Z,1297.00
2023-03-29T15:46:15.249Z,1297.00
2023-03-29T15:47:15.188Z,1297.00
2023-03-29T15:48:15.171Z,1298.00
2023-03-29T15:49:15.152Z,1297.00
2023-03-29T15:50:15.148Z,1296.00
2023-03-29T15:51:15.113Z,1291.00
2023-03-29T15:52:15.099Z,1282.00
2023-03-29T15:53:15.874Z,1280.00
2023-03-29T15:54:15.085Z,1277.00
2023-03-29T15:55:15.043Z,1277.00
2023-03-29T15:56:15.048Z,1274.00
2023-03-29T15:57:15.090Z,1270.00
2023-03-29T15:58:15.119Z,1269.00
2023-03-29T15:59:15.036Z,1268.00
2023-03-29T16:00:14.947Z,1266.00
2023-03-29T16:01:15.020Z,1262.00
2023-03-29T16:02:14.970Z,1262.00
2023-03-29T16:03:14.966Z,1262.00
2023-03-29T16:04:14.915Z,1256.00
2023-03-29T16:05:14.884Z,1249.00
2023-03-29T16:06:14.871Z,1248.00
2023-03-29T16:07:14.856Z,1244.00
2023-03-29T16:08:14.889Z,1245.00
2023-03-29T16:09:14.830Z,1242.00
2023-03-29T16:10:14.829Z,1239.00
2023-03-29T16:11:14.807Z,1237.00
2023-03-29T16:12:14.781Z,1237.00
2023-03-29T16:13:14.776Z,1237.00
2023-03-29T16:14:14.787Z,1236.00
2023-03-29T16:15:14.775Z,1234.00
2023-03-29T16:16:14.819Z,1231.00
2023-03-29T16:17:14.782Z,1230.00